RYR989J EGCC-EIDW
Flight info
| Callsign | RYR989J |
|---|---|
| Flight time | 0h 41m |
| Altitude | 26000 |
| Route | EKLAD Y53 WAL L10 PENIL M144 BAGSO BAGSO4L |
| Aircraft | B738/M-SDE2E3FGHIRWXY/LB1 |
Departure
| Time | 2026-05-04 22:03 |
|---|---|
| Airport | Manchester Airport (EGCC) |
Arrival
| Time | 2026-05-04 22:44 |
|---|---|
| Airport | Dublin Airport (EIDW) |
| Time | Latitude | Longitude | Altitude | Speed | Heading |
|---|---|---|---|---|---|
| 2026-05-04 21:28 | 53.36090 | -2.26798 | 247 ft | 0 kts | 313° |
| 2026-05-04 21:28 | 53.36085 | -2.26794 | 247 ft | 0 kts | 315° |
| 2026-05-04 21:49 | 53.36084 | -2.26792 | 247 ft | 1 kts | 315° |
| 2026-05-04 21:49 | 53.36071 | -2.26771 | 247 ft | 3 kts | 318° |
| 2026-05-04 21:50 | 53.36056 | -2.26750 | 247 ft | 3 kts | 330° |
| 2026-05-04 21:50 | 53.36039 | -2.26739 | 247 ft | 3 kts | 6° |
| 2026-05-04 21:50 | 53.36029 | -2.26744 | 247 ft | 1 kts | 50° |
| 2026-05-04 21:50 | 53.36028 | -2.26745 | 247 ft | 0 kts | 50° |
| 2026-05-04 21:54 | 53.36030 | -2.26741 | 247 ft | 2 kts | 50° |
| 2026-05-04 21:55 | 53.36047 | -2.26707 | 247 ft | 5 kts | 50° |
| 2026-05-04 21:55 | 53.36069 | -2.26652 | 247 ft | 7 kts | 60° |
| 2026-05-04 21:55 | 53.36072 | -2.26644 | 247 ft | 0 kts | 63° |
| 2026-05-04 21:56 | 53.36072 | -2.26635 | 247 ft | 3 kts | 86° |
| 2026-05-04 21:56 | 53.36050 | -2.26579 | 250 ft | 7 kts | 124° |
| 2026-05-04 21:56 | 53.36053 | -2.26503 | 253 ft | 7 kts | 59° |
| 2026-05-04 21:56 | 53.36083 | -2.26440 | 252 ft | 7 kts | 50° |
| 2026-05-04 21:57 | 53.36124 | -2.26355 | 251 ft | 11 kts | 51° |
| 2026-05-04 21:57 | 53.36183 | -2.26255 | 250 ft | 12 kts | 25° |
| 2026-05-04 21:57 | 53.36244 | -2.26152 | 249 ft | 13 kts | 51° |
| 2026-05-04 21:57 | 53.36269 | -2.26041 | 250 ft | 6 kts | 96° |
| 2026-05-04 21:58 | 53.36268 | -2.26026 | 250 ft | 0 kts | 96° |
| 2026-05-04 22:00 | 53.36267 | -2.26006 | 251 ft | 3 kts | 95° |
| 2026-05-04 22:01 | 53.36276 | -2.25953 | 252 ft | 9 kts | 66° |
| 2026-05-04 22:01 | 53.36288 | -2.25838 | 255 ft | 10 kts | 102° |
| 2026-05-04 22:01 | 53.36244 | -2.25755 | 260 ft | 7 kts | 143° |
| 2026-05-04 22:01 | 53.36203 | -2.25783 | 258 ft | 8 kts | 229° |
| 2026-05-04 22:02 | 53.36197 | -2.25795 | 258 ft | 0 kts | 230° |
| 2026-05-04 22:02 | 53.36171 | -2.25845 | 258 ft | 32 kts | 230° |
| 2026-05-04 22:02 | 53.35827 | -2.26560 | 264 ft | 121 kts | 231° |
| 2026-05-04 22:02 | 53.35149 | -2.27949 | 472 ft | 175 kts | 231° |
| 2026-05-04 22:03 | 53.34311 | -2.29655 | 1180 ft | 205 kts | 232° |
| 2026-05-04 22:03 | 53.33366 | -2.31607 | 1858 ft | 224 kts | 234° |
| 2026-05-04 22:03 | 53.32380 | -2.33695 | 2516 ft | 241 kts | 234° |
| 2026-05-04 22:03 | 53.31545 | -2.36145 | 3291 ft | 246 kts | 257° |
| 2026-05-04 22:04 | 53.31312 | -2.39017 | 4077 ft | 256 kts | 266° |
| 2026-05-04 22:04 | 53.31186 | -2.41990 | 4804 ft | 257 kts | 267° |
| 2026-05-04 22:04 | 53.31094 | -2.44992 | 5556 ft | 257 kts | 268° |
| 2026-05-04 22:04 | 53.30953 | -2.47888 | 6791 ft | 244 kts | 263° |
| 2026-05-04 22:05 | 53.30667 | -2.50650 | 7787 ft | 241 kts | 259° |
| 2026-05-04 22:05 | 53.30354 | -2.53436 | 8579 ft | 245 kts | 261° |
| 2026-05-04 22:05 | 53.30021 | -2.56244 | 9387 ft | 250 kts | 258° |
| 2026-05-04 22:05 | 53.29580 | -2.59237 | 9393 ft | 279 kts | 255° |
| 2026-05-04 22:06 | 53.29063 | -2.62370 | 9914 ft | 279 kts | 255° |
| 2026-05-04 22:06 | 53.28516 | -2.65484 | 10338 ft | 280 kts | 254° |
| 2026-05-04 22:06 | 53.27948 | -2.68610 | 10759 ft | 282 kts | 253° |
| 2026-05-04 22:06 | 53.27371 | -2.71746 | 11172 ft | 283 kts | 253° |
| 2026-05-04 22:07 | 53.26787 | -2.74900 | 11623 ft | 285 kts | 253° |
| 2026-05-04 22:07 | 53.26198 | -2.78071 | 12068 ft | 286 kts | 253° |
| 2026-05-04 22:07 | 53.25856 | -2.81327 | 12488 ft | 288 kts | 274° |
| 2026-05-04 22:07 | 53.26382 | -2.84624 | 12695 ft | 309 kts | 296° |
| 2026-05-04 22:08 | 53.27590 | -2.87691 | 12942 ft | 332 kts | 305° |
| 2026-05-04 22:08 | 53.29009 | -2.90822 | 13522 ft | 343 kts | 306° |
| 2026-05-04 22:08 | 53.30479 | -2.94012 | 14258 ft | 348 kts | 306° |
| 2026-05-04 22:08 | 53.31953 | -2.97232 | 15007 ft | 351 kts | 306° |
| 2026-05-04 22:09 | 53.33432 | -3.00502 | 15735 ft | 354 kts | 306° |
| 2026-05-04 22:09 | 53.34920 | -3.03823 | 16445 ft | 359 kts | 305° |
| 2026-05-04 22:09 | 53.36421 | -3.07190 | 17158 ft | 363 kts | 305° |
| 2026-05-04 22:09 | 53.37935 | -3.10601 | 17852 ft | 368 kts | 305° |
| 2026-05-04 22:10 | 53.39450 | -3.14022 | 18491 ft | 373 kts | 305° |
| 2026-05-04 22:10 | 53.40978 | -3.17555 | 19100 ft | 376 kts | 304° |
| 2026-05-04 22:10 | 53.42504 | -3.21137 | 19705 ft | 380 kts | 304° |
| 2026-05-04 22:10 | 53.44046 | -3.24772 | 20280 ft | 384 kts | 305° |
| 2026-05-04 22:11 | 53.45600 | -3.28439 | 20934 ft | 386 kts | 305° |
| 2026-05-04 22:11 | 53.47151 | -3.32098 | 21735 ft | 384 kts | 305° |
| 2026-05-04 22:11 | 53.48694 | -3.35741 | 22530 ft | 382 kts | 306° |
| 2026-05-04 22:11 | 53.50238 | -3.39384 | 23245 ft | 383 kts | 306° |
| 2026-05-04 22:12 | 53.51535 | -3.42450 | 23635 ft | 388 kts | 306° |
| 2026-05-04 22:12 | 53.51890 | -3.43288 | 23584 ft | 392 kts | 306° |
| 2026-05-04 22:12 | 53.53470 | -3.47028 | 23476 ft | 389 kts | 306° |
| 2026-05-04 22:12 | 53.55021 | -3.50705 | 23420 ft | 383 kts | 306° |
| 2026-05-04 22:13 | 53.56552 | -3.54337 | 23429 ft | 379 kts | 306° |
| 2026-05-04 22:13 | 53.58082 | -3.57974 | 23447 ft | 383 kts | 306° |
| 2026-05-04 22:13 | 53.59628 | -3.61665 | 23446 ft | 387 kts | 304° |
| 2026-05-04 22:13 | 53.60905 | -3.65632 | 23430 ft | 384 kts | 292° |
| 2026-05-04 22:14 | 53.61694 | -3.69914 | 23442 ft | 383 kts | 282° |
| 2026-05-04 22:14 | 53.62026 | -3.74374 | 23455 ft | 386 kts | 274° |
| 2026-05-04 22:14 | 53.62180 | -3.78813 | 23552 ft | 382 kts | 273° |
| 2026-05-04 22:14 | 53.62324 | -3.83278 | 23581 ft | 381 kts | 274° |
| 2026-05-04 22:15 | 53.62484 | -3.87664 | 23563 ft | 368 kts | 274° |
| 2026-05-04 22:15 | 53.62651 | -3.91892 | 23565 ft | 357 kts | 274° |
| 2026-05-04 22:15 | 53.62817 | -3.95983 | 23571 ft | 343 kts | 274° |
| 2026-05-04 22:15 | 53.62976 | -3.99924 | 23566 ft | 331 kts | 274° |
| 2026-05-04 22:16 | 53.63127 | -4.03717 | 23572 ft | 318 kts | 274° |
| 2026-05-04 22:16 | 53.63270 | -4.07368 | 23568 ft | 306 kts | 274° |
| 2026-05-04 22:16 | 53.63405 | -4.10842 | 23570 ft | 297 kts | 274° |
| 2026-05-04 22:16 | 53.63538 | -4.14291 | 23584 ft | 295 kts | 274° |
| 2026-05-04 22:17 | 53.63672 | -4.17766 | 23595 ft | 300 kts | 275° |
| 2026-05-04 22:17 | 53.63807 | -4.21298 | 23602 ft | 304 kts | 274° |
| 2026-05-04 22:17 | 53.63942 | -4.24848 | 23589 ft | 303 kts | 274° |
| 2026-05-04 22:17 | 53.64074 | -4.28383 | 23583 ft | 301 kts | 274° |
| 2026-05-04 22:18 | 53.64204 | -4.31901 | 23583 ft | 300 kts | 274° |
| 2026-05-04 22:18 | 53.64334 | -4.35402 | 23583 ft | 299 kts | 274° |
| 2026-05-04 22:18 | 53.64462 | -4.38892 | 23589 ft | 298 kts | 274° |
| 2026-05-04 22:18 | 53.64587 | -4.42319 | 23459 ft | 296 kts | 274° |
| 2026-05-04 22:19 | 53.64712 | -4.45785 | 23138 ft | 297 kts | 274° |
| 2026-05-04 22:19 | 53.64837 | -4.49283 | 22615 ft | 302 kts | 274° |
| 2026-05-04 22:19 | 53.64966 | -4.52938 | 21533 ft | 325 kts | 274° |
| 2026-05-04 22:19 | 53.65104 | -4.56844 | 20820 ft | 338 kts | 273° |
| 2026-05-04 22:20 | 53.65240 | -4.60793 | 20528 ft | 335 kts | 273° |
| 2026-05-04 22:20 | 53.65374 | -4.64679 | 20311 ft | 330 kts | 273° |
| 2026-05-04 22:20 | 53.65505 | -4.68514 | 20033 ft | 326 kts | 273° |
| 2026-05-04 22:20 | 53.65634 | -4.72323 | 19702 ft | 325 kts | 273° |
| 2026-05-04 22:21 | 53.65760 | -4.76070 | 19379 ft | 324 kts | 273° |
| 2026-05-04 22:21 | 53.65886 | -4.79844 | 19086 ft | 322 kts | 272° |
| 2026-05-04 22:21 | 53.66009 | -4.83608 | 18775 ft | 321 kts | 272° |
| 2026-05-04 22:21 | 53.66132 | -4.87352 | 18508 ft | 319 kts | 272° |
| 2026-05-04 22:22 | 53.66253 | -4.91075 | 18185 ft | 318 kts | 272° |
| 2026-05-04 22:22 | 53.66373 | -4.94788 | 17880 ft | 315 kts | 272° |
| 2026-05-04 22:22 | 53.66491 | -4.98457 | 17616 ft | 312 kts | 272° |
| 2026-05-04 22:22 | 53.66607 | -5.02104 | 17291 ft | 311 kts | 272° |
| 2026-05-04 22:23 | 53.66721 | -5.05675 | 17046 ft | 307 kts | 272° |
| 2026-05-04 22:23 | 53.66832 | -5.09266 | 16722 ft | 307 kts | 272° |
| 2026-05-04 22:23 | 53.66943 | -5.12858 | 16384 ft | 306 kts | 272° |
| 2026-05-04 22:23 | 53.67051 | -5.16426 | 16123 ft | 304 kts | 272° |
| 2026-05-04 22:24 | 53.67156 | -5.19974 | 15819 ft | 303 kts | 272° |
| 2026-05-04 22:24 | 53.67258 | -5.23514 | 15502 ft | 302 kts | 272° |
| 2026-05-04 22:24 | 53.67360 | -5.27052 | 15214 ft | 301 kts | 272° |
| 2026-05-04 22:24 | 53.67460 | -5.30564 | 14951 ft | 299 kts | 272° |
| 2026-05-04 22:25 | 53.67559 | -5.34056 | 14679 ft | 297 kts | 272° |
| 2026-05-04 22:25 | 53.67657 | -5.37528 | 14403 ft | 296 kts | 272° |
| 2026-05-04 22:25 | 53.67754 | -5.40984 | 14145 ft | 294 kts | 272° |
| 2026-05-04 22:25 | 53.67847 | -5.44381 | 13884 ft | 293 kts | 272° |
| 2026-05-04 22:26 | 53.67939 | -5.47789 | 13647 ft | 289 kts | 272° |
| 2026-05-04 22:26 | 53.68030 | -5.51162 | 13432 ft | 285 kts | 272° |
| 2026-05-04 22:26 | 53.68120 | -5.54487 | 13182 ft | 283 kts | 272° |
| 2026-05-04 22:26 | 53.68207 | -5.57795 | 12893 ft | 282 kts | 273° |
| 2026-05-04 22:27 | 53.68294 | -5.61094 | 12609 ft | 281 kts | 273° |
| 2026-05-04 22:27 | 53.68311 | -5.64376 | 12323 ft | 280 kts | 262° |
| 2026-05-04 22:27 | 53.67639 | -5.67397 | 12033 ft | 281 kts | 237° |
| 2026-05-04 22:27 | 53.66427 | -5.69942 | 11891 ft | 276 kts | 229° |
| 2026-05-04 22:28 | 53.64947 | -5.71915 | 11763 ft | 272 kts | 204° |
| 2026-05-04 22:28 | 53.63123 | -5.72489 | 11648 ft | 268 kts | 178° |
| 2026-05-04 22:28 | 53.61340 | -5.71715 | 11498 ft | 265 kts | 154° |
| 2026-05-04 22:28 | 53.59873 | -5.69866 | 11225 ft | 267 kts | 131° |
| 2026-05-04 22:29 | 53.58734 | -5.67391 | 10967 ft | 267 kts | 126° |
| 2026-05-04 22:29 | 53.57636 | -5.64866 | 10693 ft | 269 kts | 126° |
| 2026-05-04 22:29 | 53.56317 | -5.62655 | 10379 ft | 270 kts | 149° |
| 2026-05-04 22:29 | 53.54712 | -5.61098 | 10119 ft | 270 kts | 150° |
| 2026-05-04 22:30 | 53.53086 | -5.59492 | 9815 ft | 272 kts | 149° |
| 2026-05-04 22:30 | 53.51458 | -5.57850 | 9492 ft | 274 kts | 149° |
| 2026-05-04 22:30 | 53.49824 | -5.56189 | 9177 ft | 275 kts | 150° |
| 2026-05-04 22:30 | 53.48065 | -5.54981 | 8841 ft | 275 kts | 171° |
| 2026-05-04 22:31 | 53.46194 | -5.54530 | 8545 ft | 269 kts | 173° |
| 2026-05-04 22:31 | 53.44348 | -5.54069 | 8172 ft | 267 kts | 173° |
| 2026-05-04 22:31 | 53.42516 | -5.53584 | 7784 ft | 266 kts | 172° |
| 2026-05-04 22:31 | 53.40722 | -5.53097 | 7409 ft | 264 kts | 172° |
| 2026-05-04 22:32 | 53.38909 | -5.52959 | 7010 ft | 260 kts | 192° |
| 2026-05-04 22:32 | 53.37173 | -5.53656 | 6718 ft | 254 kts | 197° |
| 2026-05-04 22:32 | 53.35469 | -5.54343 | 6401 ft | 251 kts | 196° |
| 2026-05-04 22:32 | 53.33769 | -5.55000 | 6017 ft | 251 kts | 195° |
| 2026-05-04 22:33 | 53.32049 | -5.55653 | 5653 ft | 256 kts | 195° |
| 2026-05-04 22:33 | 53.30328 | -5.56373 | 5396 ft | 254 kts | 204° |
| 2026-05-04 22:33 | 53.28831 | -5.57860 | 5159 ft | 248 kts | 218° |
| 2026-05-04 22:33 | 53.27434 | -5.59493 | 4925 ft | 242 kts | 217° |
| 2026-05-04 22:34 | 53.26079 | -5.61037 | 4654 ft | 237 kts | 218° |
| 2026-05-04 22:34 | 53.24958 | -5.62939 | 4352 ft | 227 kts | 246° |
| 2026-05-04 22:34 | 53.24650 | -5.65422 | 4092 ft | 216 kts | 276° |
| 2026-05-04 22:34 | 53.25035 | -5.67783 | 3837 ft | 209 kts | 300° |
| 2026-05-04 22:35 | 53.25905 | -5.69674 | 3577 ft | 204 kts | 315° |
| 2026-05-04 22:35 | 53.26886 | -5.71352 | 3355 ft | 199 kts | 316° |
| 2026-05-04 22:35 | 53.27835 | -5.72974 | 3219 ft | 193 kts | 316° |
| 2026-05-04 22:35 | 53.28757 | -5.74552 | 3076 ft | 187 kts | 316° |
| 2026-05-04 22:36 | 53.29626 | -5.76047 | 2990 ft | 176 kts | 316° |
| 2026-05-04 22:36 | 53.30468 | -5.77499 | 2984 ft | 172 kts | 316° |
| 2026-05-04 22:36 | 53.31299 | -5.78933 | 2988 ft | 172 kts | 316° |
| 2026-05-04 22:36 | 53.32135 | -5.80377 | 2974 ft | 173 kts | 316° |
| 2026-05-04 22:37 | 53.32972 | -5.81824 | 2966 ft | 173 kts | 316° |
| 2026-05-04 22:37 | 53.33809 | -5.83272 | 2962 ft | 173 kts | 316° |
| 2026-05-04 22:37 | 53.34643 | -5.84716 | 2962 ft | 172 kts | 316° |
| 2026-05-04 22:37 | 53.35464 | -5.86140 | 2963 ft | 172 kts | 316° |
| 2026-05-04 22:38 | 53.36294 | -5.87581 | 2964 ft | 172 kts | 316° |
| 2026-05-04 22:38 | 53.37124 | -5.89022 | 2967 ft | 172 kts | 316° |
| 2026-05-04 22:38 | 53.37944 | -5.90446 | 2955 ft | 167 kts | 316° |
| 2026-05-04 22:38 | 53.38741 | -5.91833 | 2885 ft | 166 kts | 316° |
| 2026-05-04 22:39 | 53.39543 | -5.93226 | 2764 ft | 165 kts | 316° |
| 2026-05-04 22:39 | 53.40213 | -5.94767 | 2593 ft | 166 kts | 290° |
| 2026-05-04 22:39 | 53.40413 | -5.96710 | 2445 ft | 174 kts | 281° |
| 2026-05-04 22:39 | 53.40538 | -5.98737 | 2193 ft | 173 kts | 277° |
| 2026-05-04 22:40 | 53.40601 | -6.00694 | 2006 ft | 166 kts | 274° |
| 2026-05-04 22:40 | 53.40644 | -6.02571 | 1841 ft | 161 kts | 275° |
| 2026-05-04 22:40 | 53.40692 | -6.04458 | 1528 ft | 164 kts | 275° |
| 2026-05-04 22:40 | 53.40780 | -6.06327 | 1350 ft | 158 kts | 279° |
| 2026-05-04 22:41 | 53.40928 | -6.08131 | 1218 ft | 156 kts | 279° |
| 2026-05-04 22:41 | 53.41071 | -6.09915 | 1174 ft | 158 kts | 280° |
| 2026-05-04 22:41 | 53.41246 | -6.11806 | 1142 ft | 166 kts | 280° |
| 2026-05-04 22:41 | 53.41388 | -6.13709 | 1013 ft | 159 kts | 279° |
| 2026-05-04 22:42 | 53.41495 | -6.15544 | 886 ft | 156 kts | 277° |
| 2026-05-04 22:42 | 53.41599 | -6.17349 | 801 ft | 157 kts | 277° |
| 2026-05-04 22:42 | 53.41710 | -6.19126 | 658 ft | 151 kts | 274° |
| 2026-05-04 22:42 | 53.41785 | -6.20812 | 517 ft | 139 kts | 275° |
| 2026-05-04 22:43 | 53.41887 | -6.22545 | 418 ft | 151 kts | 275° |
| 2026-05-04 22:43 | 53.41978 | -6.24256 | 305 ft | 147 kts | 275° |
| 2026-05-04 22:43 | 53.42068 | -6.25896 | 236 ft | 132 kts | 276° |
| 2026-05-04 22:43 | 53.42124 | -6.26838 | 231 ft | 108 kts | 275° |
| 2026-05-04 22:44 | 53.42174 | -6.27746 | 232 ft | 52 kts | 275° |
| 2026-05-04 22:44 | 53.42205 | -6.28103 | 234 ft | 12 kts | 291° |
| 2026-05-04 22:44 | 53.42253 | -6.28252 | 234 ft | 17 kts | 301° |
| 2026-05-04 22:44 | 53.42312 | -6.28324 | 226 ft | 7 kts | 352° |
| 2026-05-04 22:45 | 53.42352 | -6.28308 | 225 ft | 0 kts | 22° |
| 2026-05-04 22:45 | 53.42360 | -6.28298 | 225 ft | 2 kts | 40° |
| 2026-05-04 22:45 | 53.42367 | -6.28280 | 225 ft | 2 kts | 65° |
| 2026-05-04 22:46 | 53.42372 | -6.28252 | 224 ft | 3 kts | 78° |
| 2026-05-04 22:46 | 53.42374 | -6.28221 | 224 ft | 3 kts | 88° |
| 2026-05-04 22:46 | 53.42372 | -6.28173 | 224 ft | 7 kts | 96° |
| 2026-05-04 22:46 | 53.42365 | -6.28049 | 224 ft | 12 kts | 95° |
| 2026-05-04 22:47 | 53.42358 | -6.27915 | 224 ft | 11 kts | 95° |
| 2026-05-04 22:47 | 53.42350 | -6.27784 | 227 ft | 11 kts | 97° |
| 2026-05-04 22:47 | 53.42342 | -6.27657 | 224 ft | 11 kts | 96° |
| 2026-05-04 22:47 | 53.42335 | -6.27535 | 224 ft | 11 kts | 95° |
| 2026-05-04 22:48 | 53.42329 | -6.27415 | 224 ft | 10 kts | 96° |
| 2026-05-04 22:48 | 53.42322 | -6.27298 | 224 ft | 10 kts | 95° |
| 2026-05-04 22:48 | 53.42316 | -6.27184 | 224 ft | 10 kts | 95° |
| 2026-05-04 22:48 | 53.42310 | -6.27073 | 224 ft | 9 kts | 94° |
| 2026-05-04 22:49 | 53.42305 | -6.26959 | 224 ft | 11 kts | 95° |
| 2026-05-04 22:49 | 53.42297 | -6.26805 | 224 ft | 16 kts | 95° |
| 2026-05-04 22:49 | 53.42284 | -6.26592 | 224 ft | 20 kts | 96° |
| 2026-05-04 22:49 | 53.42271 | -6.26356 | 224 ft | 20 kts | 95° |
| 2026-05-04 22:50 | 53.42259 | -6.26131 | 224 ft | 19 kts | 95° |
| 2026-05-04 22:50 | 53.42247 | -6.25909 | 224 ft | 19 kts | 95° |
| 2026-05-04 22:50 | 53.42235 | -6.25695 | 225 ft | 18 kts | 95° |
| 2026-05-04 22:50 | 53.42224 | -6.25488 | 224 ft | 18 kts | 95° |
| 2026-05-04 22:51 | 53.42213 | -6.25288 | 224 ft | 17 kts | 95° |
| 2026-05-04 22:51 | 53.42204 | -6.25102 | 226 ft | 14 kts | 84° |
| 2026-05-04 22:51 | 53.42255 | -6.24959 | 224 ft | 15 kts | 49° |
| 2026-05-04 22:51 | 53.42326 | -6.24833 | 224 ft | 15 kts | 46° |
| 2026-05-04 22:52 | 53.42385 | -6.24732 | 224 ft | 10 kts | 40° |
| 2026-05-04 22:52 | 53.42447 | -6.24678 | 224 ft | 10 kts | 21° |
| 2026-05-04 22:52 | 53.42513 | -6.24645 | 224 ft | 8 kts | 20° |
| 2026-05-04 22:52 | 53.42553 | -6.24620 | 224 ft | 3 kts | 20° |
| 2026-05-04 22:53 | 53.42554 | -6.24620 | 224 ft | 0 kts | 20° |